sensor_id;sensor_type;location;lat;lon;timestamp;pressure;altitude;pressure_sealevel;temperature;humidity
60087;BME280;45960;53.630;55.972;2023-02-19T00:00:45;100117.34;;;-18.75;52.88
60087;BME280;45960;53.630;55.972;2023-02-19T00:01:47;100118.22;;;-18.74;52.92
60087;BME280;45960;53.630;55.972;2023-02-19T00:02:48;100114.09;;;-18.70;52.74
60087;BME280;45960;53.630;55.972;2023-02-19T00:03:53;100117.63;;;-18.68;52.84
60087;BME280;45960;53.630;55.972;2023-02-19T00:04:54;100106.69;;;-18.66;52.73
60087;BME280;45960;53.630;55.972;2023-02-19T00:05:55;100105.97;;;-18.63;52.74
60087;BME280;45960;53.630;55.972;2023-02-19T00:06:56;100107.88;;;-18.59;52.76
60087;BME280;45960;53.630;55.972;2023-02-19T00:07:57;100106.25;;;-18.57;52.55
60087;BME280;45960;53.630;55.972;2023-02-19T00:08:58;100104.53;;;-18.58;52.68
60087;BME280;45960;53.630;55.972;2023-02-19T00:10:00;100108.03;;;-18.56;52.68
60087;BME280;45960;53.630;55.972;2023-02-19T00:11:03;100108.19;;;-18.53;52.55
60087;BME280;45960;53.630;55.972;2023-02-19T00:12:05;100107.34;;;-18.52;52.46
60087;BME280;45960;53.630;55.972;2023-02-19T00:13:06;100103.94;;;-18.53;52.63
60087;BME280;45960;53.630;55.972;2023-02-19T00:14:07;100105.69;;;-18.52;52.50
60087;BME280;45960;53.630;55.972;2023-02-19T00:15:08;100105.69;;;-18.52;52.66
60087;BME280;45960;53.630;55.972;2023-02-19T00:16:17;100106.53;;;-18.51;52.55
60087;BME280;45960;53.630;55.972;2023-02-19T00:17:18;100092.88;;;-18.53;52.60
60087;BME280;45960;53.630;55.972;2023-02-19T00:18:19;100094.75;;;-18.49;52.67
60087;BME280;45960;53.630;55.972;2023-02-19T00:19:20;100097.31;;;-18.49;52.76
60087;BME280;45960;53.630;55.972;2023-02-19T00:20:21;100103.34;;;-18.47;52.82
60087;BME280;45960;53.630;55.972;2023-02-19T00:21:23;100103.34;;;-18.47;52.66
60087;BME280;45960;53.630;55.972;2023-02-19T00:22:24;100095.78;;;-18.45;52.88
60087;BME280;45960;53.630;55.972;2023-02-19T00:23:25;100093.16;;;-18.47;52.78
60087;BME280;45960;53.630;55.972;2023-02-19T00:24:27;100100.00;;;-18.46;52.74
60087;BME280;45960;53.630;55.972;2023-02-19T00:25:28;100094.91;;;-18.46;52.84
60087;BME280;45960;53.630;55.972;2023-02-19T00:26:29;100094.75;;;-18.49;52.76
60087;BME280;45960;53.630;55.972;2023-02-19T00:27:31;100098.19;;;-18.48;52.87
60087;BME280;45960;53.630;55.972;2023-02-19T00:28:32;100101.44;;;-18.51;52.96
60087;BME280;45960;53.630;55.972;2023-02-19T00:29:34;100098.84;;;-18.53;52.92
60087;BME280;45960;53.630;55.972;2023-02-19T00:30:35;100092.88;;;-18.53;53.07
60087;BME280;45960;53.630;55.972;2023-02-19T00:31:37;100096.22;;;-18.54;52.81
60087;BME280;45960;53.630;55.972;2023-02-19T00:32:38;100099.56;;;-18.55;53.34
60087;BME280;45960;53.630;55.972;2023-02-19T00:33:39;100087.66;;;-18.56;53.02
60087;BME280;45960;53.630;55.972;2023-02-19T00:34:40;100085.88;;;-18.57;52.96
60087;BME280;45960;53.630;55.972;2023-02-19T00:35:41;100090.09;;;-18.58;53.11
60087;BME280;45960;53.630;55.972;2023-02-19T00:36:43;100096.88;;;-18.58;53.02
60087;BME280;45960;53.630;55.972;2023-02-19T00:37:44;100093.47;;;-18.59;53.08
60087;BME280;45960;53.630;55.972;2023-02-19T00:38:45;100090.06;;;-18.59;53.12
60087;BME280;45960;53.630;55.972;2023-02-19T00:39:47;100101.03;;;-18.60;52.96
60087;BME280;45960;53.630;55.972;2023-02-19T00:40:48;100095.78;;;-18.63;53.11
60087;BME280;45960;53.630;55.972;2023-02-19T00:41:49;100093.16;;;-18.65;53.11
60087;BME280;45960;53.630;55.972;2023-02-19T00:42:50;100094.78;;;-18.67;53.05
60087;BME280;45960;53.630;55.972;2023-02-19T00:44:00;100089.44;;;-18.71;53.09
60087;BME280;45960;53.630;55.972;2023-02-19T00:45:01;100103.00;;;-18.73;53.22
60087;BME280;45960;53.630;55.972;2023-02-19T00:46:04;100100.34;;;-18.76;53.11
60087;BME280;45960;53.630;55.972;2023-02-19T00:47:05;100101.94;;;-18.78;53.18
60087;BME280;45960;53.630;55.972;2023-02-19T00:48:06;100094.91;;;-18.82;53.14
60087;BME280;45960;53.630;55.972;2023-02-19T00:49:08;100095.72;;;-18.83;53.14
60087;BME280;45960;53.630;55.972;2023-02-19T00:50:13;100094.63;;;-18.88;53.35
60087;BME280;45960;53.630;55.972;2023-02-19T00:51:14;100094.63;;;-18.88;53.28
60087;BME280;45960;53.630;55.972;2023-02-19T00:52:16;100089.38;;;-18.91;53.13
60087;BME280;45960;53.630;55.972;2023-02-19T00:53:17;100092.59;;;-18.95;53.13
60087;BME280;45960;53.630;55.972;2023-02-19T00:54:19;100095.78;;;-18.99;53.24
60087;BME280;45960;53.630;55.972;2023-02-19T00:55:22;100088.78;;;-19.03;53.26
60087;BME280;45960;53.630;55.972;2023-02-19T00:56:23;100091.19;;;-19.06;53.19
60087;BME280;45960;53.630;55.972;2023-02-19T00:57:24;100085.88;;;-19.11;53.24
60087;BME280;45960;53.630;55.972;2023-02-19T00:58:25;100081.63;;;-19.10;53.26
60087;BME280;45960;53.630;55.972;2023-02-19T00:59:26;100088.34;;;-19.12;53.36
60087;BME280;45960;53.630;55.972;2023-02-19T01:00:27;100086.59;;;-19.13;53.24
60087;BME280;45960;53.630;55.972;2023-02-19T01:01:28;100094.16;;;-19.15;53.29
60087;BME280;45960;53.630;55.972;2023-02-19T01:02:29;100084.69;;;-19.17;53.24
60087;BME280;45960;53.630;55.972;2023-02-19T01:03:34;100082.00;;;-19.21;53.32
60087;BME280;45960;53.630;55.972;2023-02-19T01:04:35;100084.38;;;-19.24;53.40
60087;BME280;45960;53.630;55.972;2023-02-19T01:05:37;100089.47;;;-19.24;53.39
60087;BME280;45960;53.630;55.972;2023-02-19T01:06:38;100082.63;;;-19.25;53.28
60087;BME280;45960;53.630;55.972;2023-02-19T01:07:39;100085.13;;;-19.26;53.39
60087;BME280;45960;53.630;55.972;2023-02-19T01:08:42;100089.31;;;-19.27;53.20
60087;BME280;45960;53.630;55.972;2023-02-19T01:09:43;100085.84;;;-19.29;53.35
60087;BME280;45960;53.630;55.972;2023-02-19T01:10:45;100084.06;;;-19.30;53.18
60087;BME280;45960;53.630;55.972;2023-02-19T01:11:46;100083.19;;;-19.30;53.24
60087;BME280;45960;53.630;55.972;2023-02-19T01:12:47;100085.69;;;-19.32;53.11
60087;BME280;45960;53.630;55.972;2023-02-19T01:13:48;100082.19;;;-19.34;53.23
60087;BME280;45960;53.630;55.972;2023-02-19T01:14:50;100086.31;;;-19.36;53.18
60087;BME280;45960;53.630;55.972;2023-02-19T01:15:51;100076.94;;;-19.37;53.27
60087;BME280;45960;53.630;55.972;2023-02-19T01:16:52;100088.00;;;-19.36;53.14
60087;BME280;45960;53.630;55.972;2023-02-19T01:17:53;100082.03;;;-19.37;53.12
60087;BME280;45960;53.630;55.972;2023-02-19T01:18:55;100088.78;;;-19.37;53.13
60087;BME280;45960;53.630;55.972;2023-02-19T01:19:56;100087.91;;;-19.38;53.23
60087;BME280;45960;53.630;55.972;2023-02-19T01:20:57;100083.63;;;-19.39;53.25
60087;BME280;45960;53.630;55.972;2023-02-19T01:21:59;100081.88;;;-19.40;53.24
60087;BME280;45960;53.630;55.972;2023-02-19T01:23:00;100085.19;;;-19.41;53.16
60087;BME280;45960;53.630;55.972;2023-02-19T01:24:01;100082.44;;;-19.46;53.24
60087;BME280;45960;53.630;55.972;2023-02-19T01:25:02;100078.06;;;-19.48;53.26
60087;BME280;45960;53.630;55.972;2023-02-19T01:26:04;100083.78;;;-19.52;53.28
60087;BME280;45960;53.630;55.972;2023-02-19T01:27:06;100088.09;;;-19.51;53.12
60087;BME280;45960;53.630;55.972;2023-02-19T01:28:07;100077.75;;;-19.54;53.10
60087;BME280;45960;53.630;55.972;2023-02-19T01:29:08;100086.31;;;-19.52;53.11
60087;BME280;45960;53.630;55.972;2023-02-19T01:30:10;100084.59;;;-19.53;53.12
60087;BME280;45960;53.630;55.972;2023-02-19T01:31:14;100088.81;;;-19.54;53.18
60087;BME280;45960;53.630;55.972;2023-02-19T01:32:16;100067.97;;;-19.63;53.14
60087;BME280;45960;53.630;55.972;2023-02-19T01:33:17;100082.84;;;-19.54;53.13
60087;BME280;45960;53.630;55.972;2023-02-19T01:34:18;100088.81;;;-19.54;53.05
60087;BME280;45960;53.630;55.972;2023-02-19T01:35:19;100082.91;;;-19.53;53.06
60087;BME280;45960;53.630;55.972;2023-02-19T01:36:20;100085.41;;;-19.54;53.24
60087;BME280;45960;53.630;55.972;2023-02-19T01:37:21;100082.03;;;-19.53;53.02
60087;BME280;45960;53.630;55.972;2023-02-19T01:38:23;100086.31;;;-19.52;53.13
60087;BME280;45960;53.630;55.972;2023-02-19T01:39:24;100081.22;;;-19.52;52.95
60087;BME280;45960;53.630;55.972;2023-02-19T01:40:25;100077.91;;;-19.51;52.88
60087;BME280;45960;53.630;55.972;2023-02-19T01:41:27;100085.69;;;-19.48;53.07
60087;BME280;45960;53.630;55.972;2023-02-19T01:42:29;100082.28;;;-19.49;52.95
60087;BME280;45960;53.630;55.972;2023-02-19T01:43:34;100084.88;;;-19.47;52.97
60087;BME280;45960;53.630;55.972;2023-02-19T01:45:38;100088.41;;;-19.45;52.95
60087;BME280;45960;53.630;55.972;2023-02-19T01:46:43;100088.41;;;-19.45;52.83
60087;BME280;45960;53.630;55.972;2023-02-19T01:47:52;100087.44;;;-19.47;52.90
60087;BME280;45960;53.630;55.972;2023-02-19T01:48:57;100084.03;;;-19.48;52.79
60087;BME280;45960;53.630;55.972;2023-02-19T01:49:59;100085.75;;;-19.47;52.76
60087;BME280;45960;53.630;55.972;2023-02-19T01:51:11;100087.53;;;-19.46;52.71
60087;BME280;45960;53.630;55.972;2023-02-19T01:52:26;100084.19;;;-19.45;52.84
60087;BME280;45960;53.630;55.972;2023-02-19T01:53:33;100082.59;;;-19.43;52.69
60087;BME280;45960;53.630;55.972;2023-02-19T01:54:37;100086.81;;;-19.43;52.72
60087;BME280;45960;53.630;55.972;2023-02-19T01:55:41;100083.47;;;-19.42;52.64
60087;BME280;45960;53.630;55.972;2023-02-19T01:56:45;100088.56;;;-19.42;52.67
60087;BME280;45960;53.630;55.972;2023-02-19T01:57:51;100093.63;;;-19.42;52.62
60087;BME280;45960;53.630;55.972;2023-02-19T01:58:55;100094.50;;;-19.42;52.65
60087;BME280;45960;53.630;55.972;2023-02-19T02:00:02;100090.13;;;-19.44;52.54
60087;BME280;45960;53.630;55.972;2023-02-19T02:01:13;100094.44;;;-19.43;52.65
60087;BME280;45960;53.630;55.972;2023-02-19T02:02:14;100092.78;;;-19.43;52.60
60087;BME280;45960;53.630;55.972;2023-02-19T02:03:16;100085.03;;;-19.44;52.75
60087;BME280;45960;53.630;55.972;2023-02-19T02:04:19;100090.22;;;-19.43;52.64
60087;BME280;45960;53.630;55.972;2023-02-19T02:06:55;100092.63;;;-19.46;52.71
60087;BME280;45960;53.630;55.972;2023-02-19T02:07:57;100095.06;;;-19.47;52.70
60087;BME280;45960;53.630;55.972;2023-02-19T02:09:20;100095.06;;;-19.47;52.75
60087;BME280;45960;53.630;55.972;2023-02-19T02:10:40;100098.44;;;-19.48;52.57
60087;BME280;45960;53.630;55.972;2023-02-19T02:11:46;100094.91;;;-19.50;52.59
60087;BME280;45960;53.630;55.972;2023-02-19T02:12:51;100097.47;;;-19.50;52.60
60087;BME280;45960;53.630;55.972;2023-02-19T02:13:56;100099.03;;;-19.52;52.54
60087;BME280;45960;53.630;55.972;2023-02-19T02:14:58;100103.34;;;-19.51;52.63
60087;BME280;45960;53.630;55.972;2023-02-19T02:17:29;100101.59;;;-19.52;52.50
60087;BME280;45960;53.630;55.972;2023-02-19T02:18:49;100098.13;;;-19.54;52.57
60087;BME280;45960;53.630;55.972;2023-02-19T02:22:55;100085.16;;;-19.59;52.55
60087;BME280;45960;53.630;55.972;2023-02-19T02:31:56;100092.09;;;-19.73;52.34
60087;BME280;45960;53.630;55.972;2023-02-19T02:33:05;100085.44;;;-19.71;52.22
60087;BME280;45960;53.630;55.972;2023-02-19T02:34:29;100083.81;;;-19.69;52.23
60087;BME280;45960;53.630;55.972;2023-02-19T02:35:44;100082.22;;;-19.67;52.06
60087;BME280;45960;53.630;55.972;2023-02-19T02:36:50;100078.91;;;-19.66;52.18
60087;BME280;45960;53.630;55.972;2023-02-19T02:37:55;100084.03;;;-19.64;51.96
60087;BME280;45960;53.630;55.972;2023-02-19T02:39:01;100082.50;;;-19.60;52.12
60087;BME280;45960;53.630;55.972;2023-02-19T02:40:06;100083.41;;;-19.60;52.02
60087;BME280;45960;53.630;55.972;2023-02-19T02:41:08;100080.06;;;-19.59;52.04
60087;BME280;45960;53.630;55.972;2023-02-19T02:42:10;100077.56;;;-19.57;52.10
60087;BME280;45960;53.630;55.972;2023-02-19T02:43:37;100077.56;;;-19.57;52.03
60087;BME280;45960;53.630;55.972;2023-02-19T02:44:39;100077.56;;;-19.57;52.04
60087;BME280;45960;53.630;55.972;2023-02-19T02:45:41;100074.25;;;-19.56;52.15
60087;BME280;45960;53.630;55.972;2023-02-19T02:47:04;100065.66;;;-19.58;52.18
60087;BME280;45960;53.630;55.972;2023-02-19T02:48:14;100083.56;;;-19.57;52.21
60087;BME280;45960;53.630;55.972;2023-02-19T02:49:21;100075.94;;;-19.57;52.10
60087;BME280;45960;53.630;55.972;2023-02-19T02:50:32;100075.94;;;-19.57;52.18
60087;BME280;45960;53.630;55.972;2023-02-19T02:51:41;100084.44;;;-19.56;52.32
60087;BME280;45960;53.630;55.972;2023-02-19T02:52:58;100074.25;;;-19.56;52.26
60087;BME280;45960;53.630;55.972;2023-02-19T02:54:40;100077.56;;;-19.57;52.29
60087;BME280;45960;53.630;55.972;2023-02-19T02:56:00;100069.00;;;-19.59;52.19
60087;BME280;45960;53.630;55.972;2023-02-19T02:57:05;100067.25;;;-19.60;52.21
60087;BME280;45960;53.630;55.972;2023-02-19T02:58:13;100060.28;;;-19.65;52.28
60087;BME280;45960;53.630;55.972;2023-02-19T02:59:19;100062.75;;;-19.66;52.26
60087;BME280;45960;53.630;55.972;2023-02-19T03:00:23;100060.88;;;-19.70;52.34
60087;BME280;45960;53.630;55.972;2023-02-19T03:01:37;100063.47;;;-19.69;52.36
60087;BME280;45960;53.630;55.972;2023-02-19T03:02:59;100065.09;;;-19.71;52.46
60087;BME280;45960;53.630;55.972;2023-02-19T03:04:03;100065.84;;;-19.72;52.76
60087;BME280;45960;53.630;55.972;2023-02-19T03:05:21;100070.00;;;-19.74;52.54
60087;BME280;45960;53.630;55.972;2023-02-19T03:06:46;100073.34;;;-19.75;52.55
60087;BME280;45960;53.630;55.972;2023-02-19T03:10:14;100072.22;;;-19.80;52.46
60087;BME280;45960;53.630;55.972;2023-02-19T03:11:16;100079.69;;;-19.83;52.62
60087;BME280;45960;53.630;55.972;2023-02-19T03:12:37;100077.78;;;-19.87;52.42
60087;BME280;45960;53.630;55.972;2023-02-19T03:14:21;100070.78;;;-19.91;52.48
60087;BME280;45960;53.630;55.972;2023-02-19T03:15:47;100073.97;;;-19.95;52.70
60087;BME280;45960;53.630;55.972;2023-02-19T03:17:19;100079.78;;;-19.98;52.39
60087;BME280;45960;53.630;55.972;2023-02-19T03:18:41;100078.75;;;-20.01;52.32
60087;BME280;45960;53.630;55.972;2023-02-19T03:20:07;100083.66;;;-20.04;52.48
60087;BME280;45960;53.630;55.972;2023-02-19T03:21:10;100081.91;;;-20.05;52.34
60087;BME280;45960;53.630;55.972;2023-02-19T03:22:18;100085.25;;;-20.06;52.45
60087;BME280;45960;53.630;55.972;2023-02-19T03:23:21;100081.75;;;-20.08;52.46
60087;BME280;45960;53.630;55.972;2023-02-19T03:24:49;100087.63;;;-20.10;52.65
60087;BME280;45960;53.630;55.972;2023-02-19T03:26:11;100085.00;;;-20.11;52.42
60087;BME280;45960;53.630;55.972;2023-02-19T03:27:19;100082.38;;;-20.13;52.57
60087;BME280;45960;53.630;55.972;2023-02-19T03:28:27;100084.94;;;-20.13;52.52
60087;BME280;45960;53.630;55.972;2023-02-19T03:29:49;100088.25;;;-20.14;52.44
60087;BME280;45960;53.630;55.972;2023-02-19T03:30:52;100084.06;;;-20.13;52.46
60087;BME280;45960;53.630;55.972;2023-02-19T03:32:05;100088.09;;;-20.17;52.60
60087;BME280;45960;53.630;55.972;2023-02-19T03:33:14;100098.41;;;-20.14;52.46
60087;BME280;45960;53.630;55.972;2023-02-19T03:34:25;100100.03;;;-20.16;52.60
60087;BME280;45960;53.630;55.972;2023-02-19T03:35:34;100096.50;;;-20.18;52.55
60087;BME280;45960;53.630;55.972;2023-02-19T03:36:39;100111.75;;;-20.18;52.60
60087;BME280;45960;53.630;55.972;2023-02-19T03:37:48;100098.09;;;-20.20;52.57
60087;BME280;45960;53.630;55.972;2023-02-19T03:39:04;100104.94;;;-20.19;52.57
60087;BME280;45960;53.630;55.972;2023-02-19T03:40:06;100106.50;;;-20.21;52.52
60087;BME280;45960;53.630;55.972;2023-02-19T03:41:34;100103.00;;;-20.23;52.55
60087;BME280;45960;53.630;55.972;2023-02-19T03:42:41;100103.81;;;-20.24;52.61
60087;BME280;45960;53.630;55.972;2023-02-19T03:44:16;100107.13;;;-20.25;52.52
60087;BME280;45960;53.630;55.972;2023-02-19T03:45:37;100116.50;;;-20.24;52.45
60087;BME280;45960;53.630;55.972;2023-02-19T03:46:50;100106.34;;;-20.24;52.37
60087;BME280;45960;53.630;55.972;2023-02-19T03:48:26;100108.09;;;-20.23;52.35
60087;BME280;45960;53.630;55.972;2023-02-19T03:51:00;100122.47;;;-20.23;52.45
60087;BME280;45960;53.630;55.972;2023-02-19T03:52:17;100116.41;;;-20.25;52.48
60087;BME280;45960;53.630;55.972;2023-02-19T03:53:48;100128.41;;;-20.23;52.41
60087;BME280;45960;53.630;55.972;2023-02-19T03:54:53;100118.25;;;-20.23;52.46
60087;BME280;45960;53.630;55.972;2023-02-19T03:56:24;100112.31;;;-20.23;52.33
60087;BME280;45960;53.630;55.972;2023-02-19T03:57:37;100118.25;;;-20.23;52.25
60087;BME280;45960;53.630;55.972;2023-02-19T03:58:42;100116.50;;;-20.24;52.25
60087;BME280;45960;53.630;55.972;2023-02-19T04:00:16;100108.09;;;-20.23;52.37
60087;BME280;45960;53.630;55.972;2023-02-19T04:01:15;100120.00;;;-20.22;52.24
60087;BME280;45960;53.630;55.972;2023-02-19T04:02:31;100114.13;;;-20.21;52.40
60087;BME280;45960;53.630;55.972;2023-02-19T04:03:55;100120.19;;;-20.19;52.43
60087;BME280;45960;53.630;55.972;2023-02-19T04:05:10;100120.19;;;-20.19;52.21
60087;BME280;45960;53.630;55.972;2023-02-19T04:06:19;100116.84;;;-20.18;52.41
60087;BME280;45960;53.630;55.972;2023-02-19T04:07:24;100110.19;;;-20.16;52.29
60087;BME280;45960;53.630;55.972;2023-02-19T04:08:27;100118.75;;;-20.14;52.28
60087;BME280;45960;53.630;55.972;2023-02-19T04:09:40;100118.84;;;-20.12;52.26
60087;BME280;45960;53.630;55.972;2023-02-19T04:10:46;100120.56;;;-20.11;52.33
60087;BME280;45960;53.630;55.972;2023-02-19T04:11:50;100124.94;;;-20.08;52.44
60087;BME280;45960;53.630;55.972;2023-02-19T04:13:03;100120.84;;;-20.06;52.43
60087;BME280;45960;53.630;55.972;2023-02-19T04:14:41;100123.53;;;-20.03;52.42
60087;BME280;45960;53.630;55.972;2023-02-19T04:15:46;100130.53;;;-19.99;52.26
60087;BME280;45960;53.630;55.972;2023-02-19T04:17:03;100120.34;;;-19.99;52.27
60087;BME280;45960;53.630;55.972;2023-02-19T04:18:09;100126.56;;;-19.94;52.29
60087;BME280;45960;53.630;55.972;2023-02-19T04:19:13;100119.75;;;-19.95;52.41
60087;BME280;45960;53.630;55.972;2023-02-19T04:20:18;100120.88;;;-19.90;52.32
60087;BME280;45960;53.630;55.972;2023-02-19T04:21:21;100123.56;;;-19.87;52.31
60087;BME280;45960;53.630;55.972;2023-02-19T04:22:24;100123.56;;;-19.87;52.17
60087;BME280;45960;53.630;55.972;2023-02-19T04:23:27;100125.47;;;-19.83;52.20
60087;BME280;45960;53.630;55.972;2023-02-19T04:24:39;100122.16;;;-19.82;52.23
60087;BME280;45960;53.630;55.972;2023-02-19T04:25:53;100124.84;;;-19.79;52.27
60087;BME280;45960;53.630;55.972;2023-02-19T04:27:04;100115.63;;;-19.77;52.44
60087;BME280;45960;53.630;55.972;2023-02-19T04:28:07;100114.13;;;-19.73;52.39
60087;BME280;45960;53.630;55.972;2023-02-19T04:29:09;100110.88;;;-19.71;52.31
60087;BME280;45960;53.630;55.972;2023-02-19T04:30:12;100109.25;;;-19.69;52.38
60087;BME280;45960;53.630;55.972;2023-02-19T04:31:13;100109.44;;;-19.66;52.34
60087;BME280;45960;53.630;55.972;2023-02-19T04:32:14;100107.78;;;-19.64;52.67
60087;BME280;45960;53.630;55.972;2023-02-19T04:33:15;100116.53;;;-19.58;52.50
60087;BME280;45960;53.630;55.972;2023-02-19T04:34:17;100115.13;;;-19.53;52.56
60087;BME280;45960;53.630;55.972;2023-02-19T04:35:18;100120.50;;;-19.47;52.63
60087;BME280;45960;53.630;55.972;2023-02-19T04:36:19;100124.97;;;-19.43;52.54
60087;BME280;45960;53.630;55.972;2023-02-19T04:37:20;100124.34;;;-19.39;52.47
60087;BME280;45960;53.630;55.972;2023-02-19T04:38:21;100118.59;;;-19.35;52.49
60087;BME280;45960;53.630;55.972;2023-02-19T04:39:22;100117.00;;;-19.33;52.66
60087;BME280;45960;53.630;55.972;2023-02-19T04:40:24;100120.50;;;-19.31;52.55
60087;BME280;45960;53.630;55.972;2023-02-19T04:41:25;100123.06;;;-19.31;52.55
60087;BME280;45960;53.630;55.972;2023-02-19T04:42:26;100114.75;;;-19.27;52.58
60087;BME280;45960;53.630;55.972;2023-02-19T04:43:27;100115.81;;;-19.23;52.62
60087;BME280;45960;53.630;55.972;2023-02-19T04:44:29;100115.09;;;-19.21;52.67
60087;BME280;45960;53.630;55.972;2023-02-19T04:45:30;100115.09;;;-19.21;52.65
60087;BME280;45960;53.630;55.972;2023-02-19T04:46:31;100122.06;;;-19.16;52.86
60087;BME280;45960;53.630;55.972;2023-02-19T04:47:32;100114.75;;;-19.10;52.83
60087;BME280;45960;53.630;55.972;2023-02-19T04:48:33;100113.31;;;-19.05;52.62
60087;BME280;45960;53.630;55.972;2023-02-19T04:49:34;100123.72;;;-19.01;52.81
60087;BME280;45960;53.630;55.972;2023-02-19T04:50:39;100121.38;;;-18.96;52.83
60087;BME280;45960;53.630;55.972;2023-02-19T04:51:40;100115.81;;;-18.89;52.70
60087;BME280;45960;53.630;55.972;2023-02-19T04:52:41;100111.81;;;-18.84;52.79
60087;BME280;45960;53.630;55.972;2023-02-19T04:53:43;100111.25;;;-18.78;52.65
60087;BME280;45960;53.630;55.972;2023-02-19T04:54:44;100110.63;;;-18.73;52.66
60087;BME280;45960;53.630;55.972;2023-02-19T04:55:46;100104.25;;;-18.64;52.71
60087;BME280;45960;53.630;55.972;2023-02-19T04:56:48;100106.25;;;-18.57;52.68
60087;BME280;45960;53.630;55.972;2023-02-19T04:57:51;100104.00;;;-18.51;52.82
60087;BME280;45960;53.630;55.972;2023-02-19T04:58:52;100098.25;;;-18.47;52.50
60087;BME280;45960;53.630;55.972;2023-02-19T04:59:55;100101.78;;;-18.45;52.71
60087;BME280;45960;53.630;55.972;2023-02-19T05:00:56;100108.00;;;-18.38;52.46
60087;BME280;45960;53.630;55.972;2023-02-19T05:01:58;100102.34;;;-18.33;52.39
60087;BME280;45960;53.630;55.972;2023-02-19T05:03:00;100088.91;;;-18.29;52.45
60087;BME280;45960;53.630;55.972;2023-02-19T05:04:01;100099.41;;;-18.22;52.41
60087;BME280;45960;53.630;55.972;2023-02-19T05:05:04;100101.28;;;-18.18;52.38
60087;BME280;45960;53.630;55.972;2023-02-19T05:06:08;100104.94;;;-18.13;52.42
60087;BME280;45960;53.630;55.972;2023-02-19T05:07:09;100098.38;;;-18.08;52.32
60087;BME280;45960;53.630;55.972;2023-02-19T05:08:10;100105.34;;;-18.04;52.60
60087;BME280;45960;53.630;55.972;2023-02-19T05:09:11;100102.16;;;-18.00;52.50
60087;BME280;45960;53.630;55.972;2023-02-19T05:10:12;100098.91;;;-17.96;52.44
60087;BME280;45960;53.630;55.972;2023-02-19T05:11:15;100097.44;;;-17.91;52.50
60087;BME280;45960;53.630;55.972;2023-02-19T05:12:16;100102.69;;;-17.88;52.46
60087;BME280;45960;53.630;55.972;2023-02-19T05:13:18;100097.72;;;-17.85;52.50
60087;BME280;45960;53.630;55.972;2023-02-19T05:14:19;100106.38;;;-17.81;52.64
60087;BME280;45960;53.630;55.972;2023-02-19T05:15:21;100103.09;;;-17.78;52.70
60087;BME280;45960;53.630;55.972;2023-02-19T05:16:22;100099.84;;;-17.74;52.71
60087;BME280;45960;53.630;55.972;2023-02-19T05:17:23;100100.13;;;-17.68;52.61
60087;BME280;45960;53.630;55.972;2023-02-19T05:18:25;100107.25;;;-17.61;52.69
60087;BME280;45960;53.630;55.972;2023-02-19T05:19:26;100107.53;;;-17.55;52.65
60087;BME280;45960;53.630;55.972;2023-02-19T05:20:27;100106.19;;;-17.47;52.69
60087;BME280;45960;53.630;55.972;2023-02-19T05:21:29;100102.19;;;-17.40;52.54
60087;BME280;45960;53.630;55.972;2023-02-19T05:22:30;100104.97;;;-17.35;52.66
60087;BME280;45960;53.630;55.972;2023-02-19T05:23:31;100108.59;;;-17.30;52.63
60087;BME280;45960;53.630;55.972;2023-02-19T05:24:32;100103.50;;;-17.30;52.72
60087;BME280;45960;53.630;55.972;2023-02-19T05:25:33;100105.22;;;-17.29;52.62
60087;BME280;45960;53.630;55.972;2023-02-19T05:26:34;100100.25;;;-17.26;52.83
60087;BME280;45960;53.630;55.972;2023-02-19T05:27:36;100103.88;;;-17.21;52.67
60087;BME280;45960;53.630;55.972;2023-02-19T05:28:37;100098.03;;;-17.19;52.90
60087;BME280;45960;53.630;55.972;2023-02-19T05:29:38;100092.09;;;-17.18;52.75
60087;BME280;45960;53.630;55.972;2023-02-19T05:30:39;100092.44;;;-17.10;52.92
60087;BME280;45960;53.630;55.972;2023-02-19T05:31:40;100101.16;;;-17.05;52.70
60087;BME280;45960;53.630;55.972;2023-02-19T05:32:41;100101.41;;;-16.99;52.84
60087;BME280;45960;53.630;55.972;2023-02-19T05:33:43;100090.50;;;-16.95;52.80
60087;BME280;45960;53.630;55.972;2023-02-19T05:34:45;100095.06;;;-16.87;52.89
60087;BME280;45960;53.630;55.972;2023-02-19T05:35:51;100092.72;;;-16.83;52.84
60087;BME280;45960;53.630;55.972;2023-02-19T05:36:52;100087.75;;;-16.78;52.91
60087;BME280;45960;53.630;55.972;2023-02-19T05:37:54;100087.19;;;-16.71;52.91
60087;BME280;45960;53.630;55.972;2023-02-19T05:38:55;100085.81;;;-16.63;52.98
60087;BME280;45960;53.630;55.972;2023-02-19T05:39:58;100070.81;;;-16.54;52.96
60087;BME280;45960;53.630;55.972;2023-02-19T05:41:26;100074.78;;;-16.39;52.96
60087;BME280;45960;53.630;55.972;2023-02-19T05:42:28;100071.69;;;-16.32;52.80
60087;BME280;45960;53.630;55.972;2023-02-19T05:43:29;100064.88;;;-16.32;52.95
60087;BME280;45960;53.630;55.972;2023-02-19T05:44:31;100067.72;;;-16.24;52.98
60087;BME280;45960;53.630;55.972;2023-02-19T05:45:32;100060.28;;;-16.18;53.04
60087;BME280;45960;53.630;55.972;2023-02-19T05:46:34;100072.44;;;-16.12;53.09
60087;BME280;45960;53.630;55.972;2023-02-19T05:47:35;100070.00;;;-16.09;52.90
60087;BME280;45960;53.630;55.972;2023-02-19T05:48:36;100068.28;;;-16.09;53.04
60087;BME280;45960;53.630;55.972;2023-02-19T05:49:38;100067.59;;;-16.05;53.23
60087;BME280;45960;53.630;55.972;2023-02-19T05:50:39;100067.84;;;-15.98;53.19
60087;BME280;45960;53.630;55.972;2023-02-19T05:51:49;100065.50;;;-15.92;53.06
60087;BME280;45960;53.630;55.972;2023-02-19T05:52:50;100068.28;;;-15.86;53.31
60087;BME280;45960;53.630;55.972;2023-02-19T05:53:53;100069.44;;;-15.78;53.28